Time;durP1;ratioP1;P1;durP2;ratioP2;P2;SDS_P1;SDS_P2;PMS_P1;PMS_P2;Temp;Humidity;BMP_temperature;BMP_pressure;BME280_temperature;BME280_humidity;BME280_pressure;Samples;Min_cycle;Max_cycle;Signal;HPM_P1;HPM_P2
2023/03/03 00:00:05;;;;;;;41.13;27.52;;;;;;;0.40;100.00;101392.19;686675;28;1417;-60
2023/03/03 00:00:32;;;;;;;40.70;26.73;;;;;;;0.37;100.00;101389.50;685905;28;1366;-60
2023/03/03 00:00:53;;;;;;;40.27;26.63;;;;;;;0.34;100.00;101388.50;687557;28;4300;-60
2023/03/03 00:01:14;;;;;;;41.65;27.10;;;;;;;0.35;100.00;101389.41;686424;28;2301;-60
2023/03/03 00:01:34;;;;;;;41.92;26.77;;;;;;;0.32;100.00;101389.28;687017;28;1252;-60
2023/03/03 00:01:55;;;;;;;41.67;27.17;;;;;;;0.31;100.00;101390.94;686433;28;1473;-60
2023/03/03 00:02:15;;;;;;;42.58;28.17;;;;;;;0.30;100.00;101383.16;686310;28;1239;-60
2023/03/03 00:02:35;;;;;;;41.40;28.13;;;;;;;0.29;100.00;101387.44;686500;28;1512;-60
2023/03/03 00:03:00;;;;;;;40.28;27.30;;;;;;;0.27;100.00;101394.19;687752;28;1559;-60
2023/03/03 00:03:23;;;;;;;40.08;26.20;;;;;;;0.26;100.00;101396.69;687482;28;1274;-60
2023/03/03 00:03:43;;;;;;;40.13;26.13;;;;;;;0.29;100.00;101401.97;686644;28;4654;-60
2023/03/03 00:04:04;;;;;;;42.20;27.33;;;;;;;0.29;100.00;101394.25;687570;28;1520;-60
2023/03/03 00:04:25;;;;;;;43.22;28.10;;;;;;;0.29;100.00;101392.56;687313;28;1664;-60
2023/03/03 00:04:45;;;;;;;43.50;28.23;;;;;;;0.30;100.00;101401.16;687728;28;1402;-60
2023/03/03 00:05:06;;;;;;;42.78;27.48;;;;;;;0.26;100.00;101388.97;687874;28;1689;-60
2023/03/03 00:05:26;;;;;;;41.78;27.35;;;;;;;0.31;100.00;101396.09;686994;28;1722;-60
2023/03/03 00:05:47;;;;;;;42.07;27.60;;;;;;;0.28;100.00;101392.50;685357;28;2149;-60
2023/03/03 00:06:11;;;;;;;41.42;26.60;;;;;;;0.21;100.00;101399.03;685045;28;2317;-60
2023/03/03 00:06:31;;;;;;;40.88;27.52;;;;;;;0.25;100.00;101387.19;687498;28;1431;-60
2023/03/03 00:06:52;;;;;;;42.27;27.20;;;;;;;0.27;100.00;101396.75;685494;28;4519;-60
2023/03/03 00:07:14;;;;;;;43.08;27.52;;;;;;;0.25;100.00;101392.34;687342;28;1445;-60
2023/03/03 00:07:34;;;;;;;43.50;28.23;;;;;;;0.25;100.00;101392.34;688084;28;1458;-61
2023/03/03 00:07:55;;;;;;;42.10;27.20;;;;;;;0.23;100.00;101389.69;688054;28;1468;-60
2023/03/03 00:08:17;;;;;;;43.17;27.57;;;;;;;0.23;100.00;101389.69;687597;28;1251;-60
2023/03/03 00:08:38;;;;;;;43.33;28.33;;;;;;;0.20;100.00;101389.53;687435;28;1426;-60
2023/03/03 00:08:58;;;;;;;42.92;27.65;;;;;;;0.18;100.00;101393.75;687556;28;1656;-60
2023/03/03 00:09:19;;;;;;;42.97;27.37;;;;;;;0.19;100.00;101397.19;684936;28;1401;-61
2023/03/03 00:09:39;;;;;;;42.07;27.73;;;;;;;0.20;100.00;101394.69;682030;28;4591;-60
2023/03/03 00:09:59;;;;;;;40.88;27.58;;;;;;;0.20;100.00;101394.69;682705;28;2407;-60
2023/03/03 00:10:20;;;;;;;42.57;27.97;;;;;;;0.19;100.00;101392.91;684465;28;1988;-60
2023/03/03 00:10:40;;;;;;;42.03;27.60;;;;;;;0.20;100.00;101394.69;685126;28;1492;-60
2023/03/03 00:11:03;;;;;;;43.03;27.50;;;;;;;0.20;100.00;101397.25;684563;28;1314;-60
2023/03/03 00:11:24;;;;;;;41.40;27.75;;;;;;;0.20;100.00;101393.81;687863;28;1477;-60
2023/03/03 00:11:46;;;;;;;41.57;27.70;;;;;;;0.23;100.00;101394.84;689129;28;1624;-59
2023/03/03 00:12:27;;;;;;;40.72;26.85;;;;;;;0.24;100.00;101398.31;689218;28;1441;-60
2023/03/03 00:12:49;;;;;;;40.72;27.52;;;;;;;0.23;100.00;101388.81;686494;28;4409;-60
2023/03/03 00:13:19;;;;;;;42.92;28.58;;;;;;;0.25;100.00;101390.66;688380;28;1346;-60
2023/03/03 00:13:45;;;;;;;41.67;27.27;;;;;;;0.21;100.00;101399.03;687308;28;1362;-60
2023/03/03 00:14:20;;;;;;;41.50;27.80;;;;;;;0.19;100.00;101392.91;685041;28;1568;-61
2023/03/03 00:14:40;;;;;;;42.45;27.65;;;;;;;0.18;100.00;101393.75;686474;28;1401;-60
2023/03/03 00:15:01;;;;;;;41.97;26.57;;;;;;;0.11;100.00;101394.22;686858;28;1343;-60
2023/03/03 00:15:24;;;;;;;41.08;27.42;;;;;;;0.16;100.00;101392.78;687597;28;1485;-60
2023/03/03 00:15:44;;;;;;;40.78;26.92;;;;;;;0.15;100.00;101388.44;687185;28;4316;-60
2023/03/03 00:16:15;;;;;;;43.43;27.13;;;;;;;0.15;100.00;101393.56;686198;28;2311;-60
2023/03/03 00:16:37;;;;;;;42.90;27.65;;;;;;;0.18;100.00;101386.03;687431;28;1502;-61
2023/03/03 00:17:10;;;;;;;44.38;27.98;;;;;;;0.20;100.00;101394.69;686880;28;1292;-60
2023/03/03 00:17:32;;;;;;;42.92;27.05;;;;;;;0.16;100.00;101387.63;687128;28;1470;-60
2023/03/03 00:17:53;;;;;;;42.22;27.35;;;;;;;0.15;100.00;101384.19;687497;28;1418;-60
2023/03/03 00:18:36;;;;;;;40.72;26.85;;;;;;;0.23;100.00;101383.66;686848;28;1236;-61
2023/03/03 00:18:56;;;;;;;43.80;28.25;;;;;;;0.25;100.00;101393.22;686126;28;4432;-60
2023/03/03 00:19:19;;;;;;;40.20;27.13;;;;;;;0.22;100.00;101387.91;686298;28;1298;-60
2023/03/03 00:19:41;;;;;;;40.92;27.27;;;;;;;0.22;100.00;101380.19;682230;28;1391;-61
2023/03/03 00:20:29;;;;;;;41.15;27.75;;;;;;;0.16;100.00;101385.06;680978;28;3522;-61
2023/03/03 00:20:54;;;;;;;44.10;27.13;;;;;;;0.10;100.00;101393.34;681903;29;1450;-61
2023/03/03 00:21:41;;;;;;;40.78;26.88;;;;;;;0.00;100.00;101388.56;682614;28;1236;-61
2023/03/03 00:22:01;;;;;;;42.13;27.40;;;;;;;-0.01;100.00;101389.38;685148;28;4786;-61
2023/03/03 00:22:30;;;;;;;41.75;27.08;;;;;;;-0.03;100.00;101385.84;687582;28;1394;-61
2023/03/03 00:22:51;;;;;;;43.65;27.27;;;;;;;0.06;100.00;101390.56;687400;28;1540;-60
2023/03/03 00:23:34;;;;;;;43.23;27.97;;;;;;;0.06;100.00;101394.00;683535;28;1424;-61
2023/03/03 00:24:14;;;;;;;40.97;26.75;;;;;;;0.03;100.00;101391.28;686365;28;1263;-61
2023/03/03 00:24:36;;;;;;;41.15;27.17;;;;;;;0.00;100.00;101391.16;687528;28;1473;-61
2023/03/03 00:25:29;;;;;;;40.95;26.75;;;;;;;-0.01;100.00;101390.25;687370;28;4364;-61
2023/03/03 00:25:52;;;;;;;42.10;28.13;;;;;;;0.01;100.00;101397.16;687873;28;1476;-61
2023/03/03 00:26:25;;;;;;;43.30;28.30;;;;;;;0.02;100.00;101388.66;687600;28;1327;-61
2023/03/03 00:26:48;;;;;;;43.97;27.80;;;;;;;0.02;100.00;101399.81;686484;28;1389;-61
2023/03/03 00:27:29;;;;;;;41.03;27.52;;;;;;;-0.03;100.00;101397.00;687053;28;1378;-61
2023/03/03 00:27:49;;;;;;;43.97;27.92;;;;;;;-0.03;100.00;101402.16;686210;28;4395;-61
2023/03/03 00:28:31;;;;;;;42.00;26.63;;;;;;;-0.07;100.00;101400.22;687908;28;1256;-61
2023/03/03 00:28:53;;;;;;;41.97;27.73;;;;;;;-0.08;100.00;101395.91;687457;28;1316;-61
2023/03/03 00:29:36;;;;;;;42.65;27.08;;;;;;;-0.12;100.00;101401.69;686891;28;1278;-61
2023/03/03 00:29:59;;;;;;;41.75;28.15;;;;;;;-0.11;100.00;101397.41;689569;28;1480;-61
2023/03/03 00:30:24;;;;;;;42.20;27.15;;;;;;;-0.14;100.00;101399.84;689050;28;1910;-61
2023/03/03 00:30:44;;;;;;;42.97;28.38;;;;;;;-0.13;100.00;101399.91;686326;28;4472;-60
2023/03/03 00:31:19;;;;;;;42.45;28.23;;;;;;;-0.14;100.00;101398.13;684325;28;2237;-61
2023/03/03 00:31:39;;;;;;;42.70;27.95;;;;;;;-0.10;100.00;101394.03;683662;28;1438;-61
2023/03/03 00:32:14;;;;;;;39.60;26.73;;;;;;;-0.07;100.00;101397.66;684177;28;1477;-61
2023/03/03 00:32:54;;;;;;;41.15;27.10;;;;;;;-0.07;100.00;101397.66;682179;28;1406;-61
2023/03/03 00:33:44;;;;;;;42.35;27.35;;;;;;;-0.11;100.00;101393.19;684483;28;1303;-61
2023/03/03 00:34:23;;;;;;;42.38;27.33;;;;;;;-0.13;100.00;101392.19;683682;28;4761;-61
2023/03/03 00:34:44;;;;;;;41.95;27.13;;;;;;;-0.14;100.00;101400.72;687217;28;2299;-61
2023/03/03 00:35:37;;;;;;;40.95;26.92;;;;;;;-0.12;100.00;101401.69;686925;28;1390;-61
2023/03/03 00:36:22;;;;;;;41.90;27.08;;;;;;;-0.15;100.00;101396.41;685710;28;1472;-61
2023/03/03 00:36:43;;;;;;;43.50;27.33;;;;;;;-0.18;100.00;101402.25;685530;28;4569;-61
2023/03/03 00:37:26;;;;;;;44.53;27.60;;;;;;;-0.11;100.00;101403.47;687536;28;1410;-61
2023/03/03 00:37:48;;;;;;;41.53;27.58;;;;;;;-0.14;100.00;101400.72;687385;28;1394;-61
2023/03/03 00:38:17;;;;;;;41.95;27.33;;;;;;;-0.16;100.00;101399.75;688903;28;1267;-60
2023/03/03 00:38:37;;;;;;;40.40;26.15;;;;;;;-0.19;100.00;101399.63;690571;28;1536;-61
2023/03/03 00:39:23;;;;;;;39.83;26.70;;;;;;;-0.21;100.00;101403.78;689587;28;5157;-61
2023/03/03 00:39:44;;;;;;;40.10;25.98;;;;;;;-0.22;100.00;101407.19;687631;28;4549;-61
2023/03/03 00:40:16;;;;;;;40.63;26.33;;;;;;;-0.21;100.00;101407.25;686735;28;1387;-61
2023/03/03 00:40:39;;;;;;;41.10;27.23;;;;;;;-0.24;100.00;101412.22;683279;28;1347;-61
2023/03/03 00:41:00;;;;;;;40.35;27.70;;;;;;;-0.24;100.00;101401.94;684776;28;2312;-61
2023/03/03 00:41:22;;;;;;;41.42;27.15;;;;;;;-0.28;100.00;101402.56;679372;29;1829;-61
2023/03/03 00:41:43;;;;;;;41.05;26.88;;;;;;;-0.30;100.00;101399.06;676361;29;1487;-61
2023/03/03 00:42:14;;;;;;;41.20;27.17;;;;;;;-0.33;100.00;101398.91;673559;29;1452;-61
2023/03/03 00:42:35;;;;;;;40.33;26.63;;;;;;;-0.33;100.00;101396.34;673285;29;1415;-61
2023/03/03 00:42:58;;;;;;;42.33;26.67;;;;;;;-0.33;100.00;101403.16;675609;29;4284;-61
2023/03/03 00:43:24;;;;;;;42.00;26.45;;;;;;;-0.33;100.00;101400.56;678468;29;1274;-61
2023/03/03 00:43:45;;;;;;;40.33;27.13;;;;;;;-0.35;100.00;101403.97;679641;29;2375;-61
2023/03/03 00:44:38;;;;;;;39.17;26.33;;;;;;;-0.34;100.00;101404.84;681755;28;1443;-61
2023/03/03 00:44:59;;;;;;;41.60;27.38;;;;;;;-0.35;100.00;101403.97;682637;28;1434;-61
2023/03/03 00:45:35;;;;;;;42.88;27.45;;;;;;;-0.35;100.00;101406.53;681807;29;1153;-61
2023/03/03 00:45:57;;;;;;;40.35;26.42;;;;;;;-0.40;100.00;101402.84;684113;28;4321;-61
2023/03/03 00:46:19;;;;;;;41.53;27.08;;;;;;;-0.42;100.00;101401.00;688271;28;1322;-61
2023/03/03 00:46:40;;;;;;;40.60;26.63;;;;;;;-0.41;100.00;101402.78;690376;28;1374;-61
2023/03/03 00:47:25;;;;;;;41.25;26.42;;;;;;;-0.40;100.00;101404.50;690379;28;1461;-61
2023/03/03 00:47:45;;;;;;;41.42;26.73;;;;;;;-0.39;100.00;101401.16;690225;28;1496;-61
2023/03/03 00:48:23;;;;;;;41.07;26.57;;;;;;;-0.42;100.00;101398.44;689406;28;2376;-61
2023/03/03 00:48:45;;;;;;;39.25;25.63;;;;;;;-0.48;100.00;101406.69;688176;28;4466;-61
2023/03/03 00:49:22;;;;;;;39.83;26.83;;;;;;;-0.46;100.00;101414.47;689725;28;1501;-61
2023/03/03 00:49:42;;;;;;;41.00;26.85;;;;;;;-0.46;100.00;101406.78;689874;28;1247;-61
2023/03/03 00:50:06;;;;;;;39.65;25.83;;;;;;;-0.45;100.00;101411.13;689838;28;1421;-61
2023/03/03 00:50:32;;;;;;;40.15;26.58;;;;;;;-0.44;100.00;101412.91;687108;28;1469;-61
2023/03/03 00:50:57;;;;;;;41.95;27.10;;;;;;;-0.44;100.00;101413.75;687113;28;2477;-61
2023/03/03 00:51:34;;;;;;;40.38;27.27;;;;;;;-0.45;100.00;101411.13;684304;28;1318;-61
2023/03/03 00:51:54;;;;;;;38.97;25.88;;;;;;;-0.45;100.00;101411.13;683586;28;4379;-61
2023/03/03 00:52:17;;;;;;;40.67;26.37;;;;;;;-0.44;100.00;101412.91;685551;28;1271;-61
2023/03/03 00:52:50;;;;;;;42.95;26.90;;;;;;;-0.47;100.00;101411.03;687251;28;1454;-61
2023/03/03 00:53:13;;;;;;;43.22;27.65;;;;;;;-0.47;100.00;101413.63;687534;28;1350;-61
2023/03/03 00:53:33;;;;;;;41.67;27.20;;;;;;;-0.48;100.00;101405.84;689217;28;2460;-61
2023/03/03 00:53:55;;;;;;;42.42;27.65;;;;;;;-0.48;100.00;101406.69;686413;28;1406;-61
2023/03/03 00:54:16;;;;;;;42.15;27.33;;;;;;;-0.48;100.00;101416.09;687321;28;1290;-61
2023/03/03 00:54:36;;;;;;;42.67;27.20;;;;;;;-0.50;100.00;101413.44;685978;28;4486;-58
2023/03/03 00:54:57;;;;;;;44.17;27.27;;;;;;;-0.52;100.00;101417.63;683989;28;1462;-61
2023/03/03 00:55:17;;;;;;;43.37;27.20;;;;;;;-0.55;100.00;101415.78;684641;28;1463;-61
2023/03/03 00:55:39;;;;;;;41.30;26.38;;;;;;;-0.59;100.00;101410.41;681574;28;1529;-61
2023/03/03 00:55:59;;;;;;;41.83;27.65;;;;;;;-0.59;100.00;101410.41;680502;29;2355;-61
2023/03/03 00:56:20;;;;;;;43.83;28.07;;;;;;;-0.59;100.00;101415.53;679522;28;1405;-60
2023/03/03 00:56:40;;;;;;;42.00;27.00;;;;;;;-0.60;100.00;101417.19;682449;28;1554;-61
2023/03/03 00:57:00;;;;;;;41.47;27.27;;;;;;;-0.60;100.00;101411.19;684630;28;1485;-61
2023/03/03 00:57:21;;;;;;;42.72;27.52;;;;;;;-0.59;100.00;101412.97;682697;28;1419;-61
2023/03/03 00:57:41;;;;;;;42.20;27.40;;;;;;;-0.59;100.00;101412.97;681925;28;4480;-61
2023/03/03 00:58:04;;;;;;;43.10;28.00;;;;;;;-0.61;100.00;101412.00;682966;28;1657;-61
2023/03/03 00:58:29;;;;;;;42.47;27.63;;;;;;;-0.65;100.00;101416.09;685331;28;1589;-61
2023/03/03 00:58:50;;;;;;;41.78;27.10;;;;;;;-0.65;100.00;101417.75;683093;28;2499;-61
2023/03/03 00:59:13;;;;;;;42.72;27.25;;;;;;;-0.64;100.00;101416.97;682459;28;1363;-60
2023/03/03 00:59:33;;;;;;;43.23;27.93;;;;;;;-0.64;100.00;101416.97;683782;28;1323;-61
2023/03/03 00:59:54;;;;;;;42.95;27.02;;;;;;;-0.63;100.00;101414.47;684723;28;1141;-61
2023/03/03 01:00:14;;;;;;;43.03;27.10;;;;;;;-0.63;100.00;101416.19;683997;28;1300;-61
2023/03/03 01:00:35;;;;;;;44.58;27.80;;;;;;;-0.62;100.00;101417.91;684422;28;1421;-61
2023/03/03 01:00:57;;;;;;;43.00;27.45;;;;;;;-0.62;100.00;101412.78;683879;28;4859;-61
2023/03/03 01:01:24;;;;;;;44.10;27.18;;;;;;;-0.65;100.00;101416.09;683150;28;2304;-61
2023/03/03 01:01:47;;;;;;;42.65;27.63;;;;;;;-0.63;100.00;101418.75;681289;28;1663;-61
2023/03/03 01:02:07;;;;;;;43.65;28.05;;;;;;;-0.63;100.00;101416.19;677509;29;1584;-60
2023/03/03 01:02:28;;;;;;;42.57;27.87;;;;;;;-0.67;100.00;101415.13;678559;29;1625;-61
2023/03/03 01:02:49;;;;;;;42.67;27.33;;;;;;;-0.65;100.00;101415.19;679818;29;1699;-61
2023/03/03 01:03:21;;;;;;;43.47;27.38;;;;;;;-0.69;100.00;101417.59;679997;28;1319;-61
2023/03/03 01:03:42;;;;;;;41.95;26.35;;;;;;;-0.70;100.00;101413.28;680685;28;4342;-61
2023/03/03 01:04:03;;;;;;;42.58;27.42;;;;;;;-0.71;100.00;101419.22;683065;28;1643;-61
2023/03/03 01:04:24;;;;;;;41.28;26.13;;;;;;;-0.72;100.00;101422.59;681939;29;1430;-61
2023/03/03 01:04:49;;;;;;;41.80;26.25;;;;;;;-0.74;100.00;101407.91;679504;28;1606;-61
2023/03/03 01:05:12;;;;;;;42.55;28.08;;;;;;;-0.77;100.00;101418.88;676461;29;1284;-61
2023/03/03 01:05:33;;;;;;;41.85;27.02;;;;;;;-0.79;100.00;101423.06;677655;29;1676;-61
2023/03/03 01:05:53;;;;;;;41.55;27.30;;;;;;;-0.78;100.00;101419.69;679550;29;2275;-61
2023/03/03 01:06:14;;;;;;;41.87;27.30;;;;;;;-0.78;100.00;101418.81;682247;28;1554;-61
2023/03/03 01:06:34;;;;;;;42.13;27.13;;;;;;;-0.79;100.00;101420.50;682444;28;1315;-61
2023/03/03 01:06:54;;;;;;;42.67;26.97;;;;;;;-0.77;100.00;101416.31;684880;28;4455;-61
2023/03/03 01:07:15;;;;;;;40.80;26.48;;;;;;;-0.78;100.00;101421.38;686381;28;1433;-61
2023/03/03 01:07:36;;;;;;;42.88;27.15;;;;;;;-0.77;100.00;101424.03;686880;28;1283;-61
2023/03/03 01:07:56;;;;;;;42.13;26.73;;;;;;;-0.76;100.00;101427.47;687669;28;1445;-61
2023/03/03 01:08:18;;;;;;;38.67;25.63;;;;;;;-0.75;100.00;101425.00;687301;28;1265;-61
2023/03/03 01:08:38;;;;;;;40.30;26.80;;;;;;;-0.73;100.00;101431.09;690038;28;2077;-61
2023/03/03 01:09:00;;;;;;;44.05;26.38;;;;;;;-0.74;100.00;101424.19;689462;28;1496;-61
2023/03/03 01:09:20;;;;;;;41.28;26.42;;;;;;;-0.74;100.00;101421.59;686352;28;1362;-61
2023/03/03 01:09:41;;;;;;;40.17;26.53;;;;;;;-0.75;100.00;101421.53;687024;28;4460;-61
2023/03/03 01:10:01;;;;;;;41.23;26.20;;;;;;;-0.79;100.00;101424.75;684506;28;1402;-61
2023/03/03 01:10:22;;;;;;;42.47;26.83;;;;;;;-0.77;100.00;101420.59;683747;28;2496;-61
2023/03/03 01:10:49;;;;;;;43.72;27.38;;;;;;;-0.75;100.00;101427.56;684536;28;1532;-61
2023/03/03 01:11:18;;;;;;;43.10;27.52;;;;;;;-0.77;100.00;101426.59;683132;28;1394;-61
2023/03/03 01:11:39;;;;;;;40.35;26.50;;;;;;;-0.79;100.00;101425.63;684225;28;1457;-61
2023/03/03 01:11:59;;;;;;;40.53;26.53;;;;;;;-0.79;100.00;101420.50;686426;28;1393;-61
2023/03/03 01:12:20;;;;;;;39.30;26.15;;;;;;;-0.78;100.00;101426.50;687416;28;1358;-61
2023/03/03 01:12:40;;;;;;;42.03;26.93;;;;;;;-0.79;100.00;101420.50;686675;28;4631;-61
2023/03/03 01:13:02;;;;;;;42.70;27.17;;;;;;;-0.79;100.00;101424.75;684990;28;2483;-61
2023/03/03 01:13:26;;;;;;;40.25;26.33;;;;;;;-0.80;100.00;101421.31;686894;28;1580;-61
2023/03/03 01:13:48;;;;;;;42.10;26.38;;;;;;;-0.80;100.00;101422.97;687690;28;1444;-61
2023/03/03 01:14:09;;;;;;;41.22;26.35;;;;;;;-0.81;100.00;101427.22;687415;28;1307;-61
2023/03/03 01:14:30;;;;;;;41.22;25.73;;;;;;;-0.81;100.00;101432.38;687693;28;1485;-61
2023/03/03 01:14:51;;;;;;;42.97;26.52;;;;;;;-0.84;100.00;101439.00;689043;28;1524;-61
2023/03/03 01:15:14;;;;;;;43.78;27.48;;;;;;;-0.89;100.00;101431.97;687210;28;1364;-61
2023/03/03 01:15:34;;;;;;;45.45;27.83;;;;;;;-0.88;100.00;101435.41;685964;28;2457;-61
2023/03/03 01:15:55;;;;;;;42.90;27.07;;;;;;;-0.87;100.00;101437.19;686501;28;4506;-61
2023/03/03 01:16:16;;;;;;;43.60;27.50;;;;;;;-0.87;100.00;101432.91;686357;28;3379;-61
2023/03/03 01:16:37;;;;;;;43.67;27.05;;;;;;;-0.92;100.00;101433.47;685056;28;1359;-61
2023/03/03 01:16:58;;;;;;;42.90;27.47;;;;;;;-0.94;100.00;101435.06;685479;28;1375;-61
2023/03/03 01:17:18;;;;;;;41.10;26.85;;;;;;;-0.93;100.00;101427.47;684025;28;1236;-61
2023/03/03 01:17:40;;;;;;;42.40;26.83;;;;;;;-0.93;100.00;101431.69;682009;29;1470;-61
2023/03/03 01:18:01;;;;;;;42.15;26.85;;;;;;;-0.94;100.00;101430.81;677225;29;1439;-61
2023/03/03 01:18:22;;;;;;;43.35;26.98;;;;;;;-0.91;100.00;101437.81;676578;29;2461;-61
2023/03/03 01:18:42;;;;;;;42.17;27.13;;;;;;;-0.92;100.00;101429.22;678872;29;4576;-61
2023/03/03 01:19:02;;;;;;;41.42;26.90;;;;;;;-0.93;100.00;101431.69;679605;28;1439;-61
2023/03/03 01:19:23;;;;;;;43.87;27.33;;;;;;;-0.96;100.00;101432.41;682899;28;1229;-61
2023/03/03 01:19:44;;;;;;;43.53;27.05;;;;;;;-0.97;100.00;101434.91;684791;28;1434;-61
2023/03/03 01:20:06;;;;;;;42.15;26.55;;;;;;;-0.97;100.00;101435.81;686948;28;1449;-61
2023/03/03 01:20:27;;;;;;;42.42;26.90;;;;;;;-1.03;100.00;101427.75;687092;28;1585;-61
2023/03/03 01:20:47;;;;;;;43.72;27.73;;;;;;;-1.06;100.00;101433.59;687499;28;1552;-61
2023/03/03 01:21:09;;;;;;;41.60;26.50;;;;;;;-1.06;100.00;101433.59;687264;28;1588;-61
2023/03/03 01:21:29;;;;;;;41.25;26.65;;;;;;;-1.08;100.00;101426.59;686939;28;2420;-61
2023/03/03 01:21:50;;;;;;;41.22;26.60;;;;;;;-1.07;100.00;101434.38;685736;28;4309;-61
2023/03/03 01:22:10;;;;;;;43.67;27.20;;;;;;;-1.08;100.00;101435.22;686855;28;1438;-61
2023/03/03 01:22:31;;;;;;;43.35;27.70;;;;;;;-1.10;100.00;101436.78;686805;28;1474;-60
2023/03/03 01:22:51;;;;;;;43.90;27.37;;;;;;;-1.09;100.00;101430.00;687566;28;1397;-61
2023/03/03 01:23:12;;;;;;;44.28;27.92;;;;;;;-1.11;100.00;101426.44;684826;28;1272;-61
2023/03/03 01:23:33;;;;;;;43.08;27.73;;;;;;;-1.13;100.00;101434.06;684974;28;1430;-61
2023/03/03 01:23:53;;;;;;;42.75;26.95;;;;;;;-1.13;100.00;101428.94;684714;28;1540;-61
2023/03/03 01:24:14;;;;;;;42.80;26.90;;;;;;;-1.15;100.00;101430.53;684874;28;1251;-61
2023/03/03 01:24:34;;;;;;;40.75;27.13;;;;;;;-1.19;100.00;101433.75;682619;28;1410;-61
2023/03/03 01:24:55;;;;;;;41.03;27.40;;;;;;;-1.25;100.00;101426.56;682813;28;4720;-61
2023/03/03 01:25:15;;;;;;;43.28;28.02;;;;;;;-1.26;100.00;101421.34;684714;28;1298;-61
2023/03/03 01:25:36;;;;;;;43.93;27.97;;;;;;;-1.27;100.00;101435.00;684305;28;2337;-61
2023/03/03 01:25:56;;;;;;;40.83;25.88;;;;;;;-1.28;100.00;101433.22;685158;28;1260;-61
2023/03/03 01:26:17;;;;;;;40.28;25.98;;;;;;;-1.26;100.00;101440.22;681477;28;1347;-61
2023/03/03 01:26:37;;;;;;;41.07;26.60;;;;;;;-1.25;100.00;101433.38;682193;28;1505;-61
2023/03/03 01:26:59;;;;;;;43.30;26.52;;;;;;;-1.24;100.00;101430.03;684851;28;1505;-61
2023/03/03 01:27:19;;;;;;;42.67;26.67;;;;;;;-1.24;100.00;101430.03;684091;28;1334;-61
2023/03/03 01:27:40;;;;;;;43.03;27.35;;;;;;;-1.19;100.00;101431.16;684127;28;4319;-61
2023/03/03 01:28:00;;;;;;;43.20;27.70;;;;;;;-1.20;100.00;101426.84;684454;28;1422;-61
2023/03/03 01:28:20;;;;;;;43.45;27.50;;;;;;;-1.21;100.00;101430.19;686934;28;2456;-61
2023/03/03 01:28:41;;;;;;;41.93;26.90;;;;;;;-1.19;100.00;101428.59;687320;28;1421;-61
2023/03/03 01:29:01;;;;;;;43.20;27.42;;;;;;;-1.17;100.00;101436.38;687491;28;1386;-61
2023/03/03 01:29:22;;;;;;;43.40;27.97;;;;;;;-1.19;100.00;101426.03;687700;28;1496;-61
2023/03/03 01:29:42;;;;;;;43.33;27.67;;;;;;;-1.19;100.00;101436.31;685115;28;1636;-61
2023/03/03 01:30:04;;;;;;;44.43;27.77;;;;;;;-1.21;100.00;101432.75;681778;29;1493;-61
2023/03/03 01:30:25;;;;;;;42.65;27.13;;;;;;;-1.22;100.00;101428.41;682525;28;1915;-61
2023/03/03 01:30:45;;;;;;;42.88;26.98;;;;;;;-1.22;100.00;101434.44;679925;29;4507;-61
2023/03/03 01:31:06;;;;;;;41.80;26.65;;;;;;;-1.22;100.00;101431.88;678194;29;2330;-61
2023/03/03 01:31:26;;;;;;;42.83;27.85;;;;;;;-1.24;100.00;101430.03;679463;29;1471;-60
2023/03/03 01:31:47;;;;;;;43.90;28.00;;;;;;;-1.23;100.00;101430.09;679430;29;1581;-61
2023/03/03 01:32:07;;;;;;;43.97;27.60;;;;;;;-1.25;100.00;101436.81;681661;28;1558;-61
2023/03/03 01:32:28;;;;;;;43.53;26.63;;;;;;;-1.24;100.00;101428.34;682524;28;1518;-61
2023/03/03 01:32:48;;;;;;;42.13;26.13;;;;;;;-1.23;100.00;101431.81;685138;28;1676;-61
2023/03/03 01:33:08;;;;;;;42.92;27.33;;;;;;;-1.26;100.00;101424.81;687036;28;1591;-61
2023/03/03 01:33:30;;;;;;;43.67;27.80;;;;;;;-1.26;100.00;101426.47;686015;28;1533;-61
2023/03/03 01:33:51;;;;;;;41.78;27.27;;;;;;;-1.26;100.00;101427.38;686128;28;4380;-61
2023/03/03 01:34:11;;;;;;;40.58;25.80;;;;;;;-1.25;100.00;101429.13;684237;28;1370;-61
2023/03/03 01:34:31;;;;;;;42.60;26.40;;;;;;;-1.25;100.00;101423.13;684987;28;1509;-61
2023/03/03 01:34:53;;;;;;;43.33;27.10;;;;;;;-1.26;100.00;101421.34;682338;29;1426;-61
2023/03/03 01:35:14;;;;;;;42.13;26.35;;;;;;;-1.25;100.00;101423.13;681887;28;1284;-61
2023/03/03 01:35:35;;;;;;;41.38;26.17;;;;;;;-1.28;100.00;101428.09;681719;28;2334;-61
2023/03/03 01:35:55;;;;;;;41.70;25.80;;;;;;;-1.28;100.00;101433.22;682103;28;1419;-61
2023/03/03 01:36:22;;;;;;;42.67;26.48;;;;;;;-1.27;100.00;101429.88;684432;28;1224;-61
2023/03/03 01:36:42;;;;;;;42.33;26.95;;;;;;;-1.29;100.00;101431.44;685646;28;4707;-61
2023/03/03 01:37:03;;;;;;;41.83;26.60;;;;;;;-1.30;100.00;101422.88;687307;28;1481;-61
2023/03/03 01:37:23;;;;;;;41.90;26.70;;;;;;;-1.31;100.00;101428.78;687929;28;1362;-61
2023/03/03 01:37:43;;;;;;;42.60;27.77;;;;;;;-1.30;100.00;101427.09;690393;28;1592;-61
2023/03/03 01:38:04;;;;;;;43.20;27.37;;;;;;;-1.34;100.00;101428.63;686675;28;1555;-61
2023/03/03 01:38:24;;;;;;;44.80;27.17;;;;;;;-1.34;100.00;101432.84;680853;29;2256;-61
2023/03/03 01:38:45;;;;;;;43.90;27.13;;;;;;;-1.32;100.00;101426.16;681153;28;5136;-61
2023/03/03 01:39:06;;;;;;;41.53;26.23;;;;;;;-1.25;100.00;101428.25;679102;29;1197;-61
2023/03/03 01:39:26;;;;;;;41.63;26.60;;;;;;;-1.21;100.00;101427.63;679447;29;1599;-61
2023/03/03 01:39:52;;;;;;;42.13;26.73;;;;;;;-1.25;100.00;101426.56;676097;29;4366;-61
2023/03/03 01:40:22;;;;;;;42.38;27.13;;;;;;;-1.27;100.00;101432.44;678656;29;1324;-61
2023/03/03 01:40:55;;;;;;;42.50;26.92;;;;;;;-1.31;100.00;101438.19;680713;29;1430;-61
2023/03/03 01:41:15;;;;;;;41.65;25.85;;;;;;;-1.33;100.00;101430.41;683299;28;1322;-61
2023/03/03 01:41:36;;;;;;;42.60;26.25;;;;;;;-1.37;100.00;101431.91;686223;28;1454;-61
2023/03/03 01:41:56;;;;;;;41.47;26.20;;;;;;;-1.38;100.00;101436.94;689855;28;1394;-61
2023/03/03 01:42:17;;;;;;;42.03;26.95;;;;;;;-1.39;100.00;101435.19;686582;28;1244;-61
2023/03/03 01:42:38;;;;;;;41.17;27.02;;;;;;;-1.42;100.00;101435.00;683124;28;4570;-61
2023/03/03 01:43:00;;;;;;;44.30;28.13;;;;;;;-1.42;100.00;101438.44;681270;29;1430;-61
2023/03/03 01:43:20;;;;;;;45.35;27.63;;;;;;;-1.43;100.00;101428.09;678597;29;1252;-61
2023/03/03 01:43:46;;;;;;;42.50;27.03;;;;;;;-1.44;100.00;101432.38;679024;29;2258;-61
2023/03/03 01:44:13;;;;;;;41.75;27.45;;;;;;;-1.41;100.00;101431.66;679385;28;1506;-61
2023/03/03 01:44:33;;;;;;;44.85;28.10;;;;;;;-1.43;100.00;101434.09;683590;28;1437;-61
2023/03/03 01:45:27;;;;;;;43.33;27.33;;;;;;;-1.43;100.00;101439.25;680487;29;1565;-61
2023/03/03 01:45:47;;;;;;;44.33;27.48;;;;;;;-1.41;100.00;101436.78;684145;28;4751;-61
2023/03/03 01:46:40;;;;;;;45.17;28.27;;;;;;;-1.41;100.00;101437.66;684605;28;1489;-61
2023/03/03 01:47:10;;;;;;;43.25;27.10;;;;;;;-1.35;100.00;101442.25;690163;28;1564;-61
2023/03/03 01:47:32;;;;;;;43.58;27.33;;;;;;;-1.37;100.00;101439.59;686903;28;1521;-61
2023/03/03 01:48:02;;;;;;;42.28;26.45;;;;;;;-1.34;100.00;101443.13;687378;28;1366;-60
2023/03/03 01:48:38;;;;;;;42.78;26.88;;;;;;;-1.34;100.00;101441.47;684019;28;1419;-61
2023/03/03 01:49:05;;;;;;;43.55;27.13;;;;;;;-1.35;100.00;101436.25;680707;29;5907;-61
2023/03/03 01:49:32;;;;;;;44.17;27.40;;;;;;;-1.38;100.00;101450.66;680630;29;1538;-61
2023/03/03 01:50:09;;;;;;;44.25;27.70;;;;;;;-1.34;100.00;101443.13;679490;29;1466;-61
2023/03/03 01:50:53;;;;;;;44.42;27.30;;;;;;;-1.38;100.00;101442.09;681747;29;1384;-61
2023/03/03 01:51:23;;;;;;;44.10;27.73;;;;;;;-1.30;100.00;101437.38;685560;28;1274;-61
2023/03/03 01:51:49;;;;;;;42.70;27.13;;;;;;;-1.29;100.00;101444.28;685175;28;4663;-61
2023/03/03 01:52:17;;;;;;;42.20;26.30;;;;;;;-1.30;100.00;101445.97;687075;28;1263;-61